Time,TemperatureF,DewpointF,PressureIn,WindDirection,WindDirectionDegrees,WindSpeedMPH,WindSpeedGustMPH,Humidity,HourlyPrecipIn,Conditions,Clouds,dailyrainin,SoftwareType,DateUTC
2013-02-12 00:00:00,33.3,21.3,30.24,West,270,0.9,2.0,61,0.00,,,0.00,WUHU216HW,2013-02-12 06:00:00,
2013-02-12 00:05:00,33.1,21.2,30.24,West,270,1.1,2.0,61,0.00,,,0.00,WUHU216HW,2013-02-12 06:05:00,
2013-02-12 00:10:00,32.9,21.3,30.24,West,270,0.9,1.3,62,0.00,,,0.00,WUHU216HW,2013-02-12 06:10:00,
2013-02-12 00:15:00,32.9,21.3,30.25,WSW,248,0.4,1.3,62,0.00,,,0.00,WUHU216HW,2013-02-12 06:15:00,
2013-02-12 00:20:00,32.9,21.3,30.24,WSW,248,0.0,1.1,62,0.00,,,0.00,WUHU216HW,2013-02-12 06:20:00,
2013-02-12 00:25:00,32.9,21.3,30.24,West,270,0.4,0.7,62,0.00,,,0.00,WUHU216HW,2013-02-12 06:25:00,
2013-02-12 00:30:00,32.9,21.3,30.24,West,270,0.7,1.1,62,0.00,,,0.00,WUHU216HW,2013-02-12 06:30:00,
2013-02-12 00:35:00,32.8,21.2,30.25,West,270,0.0,1.1,62,0.00,,,0.00,WUHU216HW,2013-02-12 06:35:00,
2013-02-12 00:40:00,32.8,21.2,30.25,West,270,0.0,0.7,62,0.00,,,0.00,WUHU216HW,2013-02-12 06:40:00,
2013-02-12 00:45:00,32.8,21.2,30.24,West,270,0.0,0.0,62,0.00,,,0.00,WUHU216HW,2013-02-12 06:45:00,
2013-02-12 00:50:00,32.8,21.2,30.24,West,270,0.0,0.0,62,0.00,,,0.00,WUHU216HW,2013-02-12 06:50:00,
2013-02-12 00:55:00,32.8,21.2,30.24,West,270,0.0,0.0,62,0.00,,,0.00,WUHU216HW,2013-02-12 06:55:00,
2013-02-12 01:00:00,32.6,21.0,30.24,West,270,0.0,0.0,62,0.00,,,0.00,WUHU216HW,2013-02-12 07:00:00,
2013-02-12 01:05:00,32.6,21.0,30.24,West,270,0.0,0.0,62,0.00,,,0.00,WUHU216HW,2013-02-12 07:05:00,
2013-02-12 01:10:00,32.6,21.0,30.24,West,270,0.0,0.0,62,0.00,,,0.00,WUHU216HW,2013-02-12 07:10:00,
2013-02-12 01:15:00,32.4,21.3,30.23,West,270,0.0,0.0,63,0.00,,,0.00,WUHU216HW,2013-02-12 07:15:00,
2013-02-12 01:20:00,32.2,21.1,30.23,West,270,0.0,0.0,63,0.00,,,0.00,WUHU216HW,2013-02-12 07:20:00,
2013-02-12 01:25:00,32.0,20.9,30.23,West,270,0.0,0.4,63,0.00,,,0.00,WUHU216HW,2013-02-12 07:25:00,
2013-02-12 01:30:00,32.0,20.9,30.24,West,270,0.0,0.4,63,0.00,,,0.00,WUHU216HW,2013-02-12 07:30:00,
2013-02-12 01:35:00,32.0,20.9,30.23,West,270,0.0,0.0,63,0.00,,,0.00,WUHU216HW,2013-02-12 07:35:00,
2013-02-12 01:40:00,31.9,21.1,30.23,West,270,0.0,0.0,64,0.00,,,0.00,WUHU216HW,2013-02-12 07:40:00,
2013-02-12 01:45:00,31.7,20.9,30.24,West,270,0.0,0.0,64,0.00,,,0.00,WUHU216HW,2013-02-12 07:45:00,
2013-02-12 01:50:00,31.7,20.9,30.24,West,270,1.1,1.1,64,0.00,,,0.00,WUHU216HW,2013-02-12 07:50:00,
2013-02-12 01:55:00,31.5,20.7,30.24,West,270,0.9,1.3,64,0.00,,,0.00,WUHU216HW,2013-02-12 07:55:00,
2013-02-12 02:00:00,31.5,20.7,30.24,WNW,293,0.2,1.3,64,0.00,,,0.00,WUHU216HW,2013-02-12 08:00:00,
2013-02-12 02:05:00,31.3,20.5,30.24,WNW,293,0.0,0.9,64,0.00,,,0.00,WUHU216HW,2013-02-12 08:05:00,
2013-02-12 02:10:00,31.3,20.5,30.24,WNW,293,0.0,0.4,64,0.00,,,0.00,WUHU216HW,2013-02-12 08:10:00,
2013-02-12 02:15:00,31.3,20.9,30.23,WNW,293,0.0,0.0,65,0.00,,,0.00,WUHU216HW,2013-02-12 08:15:00,
2013-02-12 02:20:00,31.3,20.9,30.23,WNW,293,0.0,0.0,65,0.00,,,0.00,WUHU216HW,2013-02-12 08:20:00,
2013-02-12 02:25:00,31.1,20.7,30.23,WNW,293,0.0,0.0,65,0.00,,,0.00,WUHU216HW,2013-02-12 08:25:00,
2013-02-12 02:30:00,31.0,20.5,30.23,WNW,293,0.0,0.0,65,0.00,,,0.00,WUHU216HW,2013-02-12 08:30:00,
2013-02-12 02:35:00,31.0,20.5,30.23,North,0,0.0,0.2,65,0.00,,,0.00,WUHU216HW,2013-02-12 08:35:00,
2013-02-12 02:40:00,30.8,20.3,30.23,North,0,0.0,0.2,65,0.00,,,0.00,WUHU216HW,2013-02-12 08:40:00,
2013-02-12 02:45:00,30.6,20.5,30.22,North,0,0.0,0.0,66,0.00,,,0.00,WUHU216HW,2013-02-12 08:45:00,
2013-02-12 02:50:00,30.6,20.5,30.21,North,0,0.0,0.0,66,0.00,,,0.00,WUHU216HW,2013-02-12 08:50:00,
2013-02-12 02:55:00,30.2,20.2,30.22,North,0,0.0,0.0,66,0.00,,,0.00,WUHU216HW,2013-02-12 08:55:00,
2013-02-12 03:00:00,30.1,20.0,30.22,North,0,0.0,0.0,66,0.00,,,0.00,WUHU216HW,2013-02-12 09:00:00,
2013-02-12 03:05:00,29.9,19.8,30.21,North,0,0.0,0.0,66,0.00,,,0.00,WUHU216HW,2013-02-12 09:05:00,
2013-02-12 03:10:00,29.9,19.8,30.21,North,0,0.0,0.0,66,0.00,,,0.00,WUHU216HW,2013-02-12 09:10:00,
2013-02-12 03:15:00,29.9,19.8,30.21,North,0,0.0,0.0,66,0.00,,,0.00,WUHU216HW,2013-02-12 09:15:00,
2013-02-12 03:20:00,29.7,19.7,30.21,North,0,0.0,0.0,66,0.00,,,0.00,WUHU216HW,2013-02-12 09:20:00,
2013-02-12 03:25:00,29.7,20.1,30.20,North,0,0.7,1.1,67,0.00,,,0.00,WUHU216HW,2013-02-12 09:25:00,
2013-02-12 03:30:00,29.7,20.1,30.20,North,0,0.2,1.3,67,0.00,,,0.00,WUHU216HW,2013-02-12 09:30:00,
2013-02-12 03:35:00,29.7,20.1,30.21,NNW,338,0.0,1.3,67,0.00,,,0.00,WUHU216HW,2013-02-12 09:35:00,
2013-02-12 03:40:00,29.7,20.1,30.21,NW,315,0.0,0.4,67,0.00,,,0.00,WUHU216HW,2013-02-12 09:40:00,
2013-02-12 03:45:00,29.7,20.4,30.21,NW,315,0.0,0.2,68,0.00,,,0.00,WUHU216HW,2013-02-12 09:45:00,
2013-02-12 03:50:00,29.5,20.3,30.21,NW,315,0.0,0.0,68,0.00,,,0.00,WUHU216HW,2013-02-12 09:50:00,
2013-02-12 03:55:00,29.5,20.3,30.21,NW,315,0.0,0.0,68,0.00,,,0.00,WUHU216HW,2013-02-12 09:55:00,
2013-02-12 04:00:00,29.3,20.1,30.21,NW,315,0.0,0.0,68,0.00,,,0.00,WUHU216HW,2013-02-12 10:00:00,
2013-02-12 04:05:00,29.2,19.9,30.21,NW,315,0.0,0.0,68,0.00,,,0.00,WUHU216HW,2013-02-12 10:05:00,
2013-02-12 04:10:00,29.2,19.9,30.21,NW,315,0.0,0.0,68,0.00,,,0.00,WUHU216HW,2013-02-12 10:10:00,
2013-02-12 04:15:00,29.2,20.3,30.20,NW,315,0.0,0.0,69,0.00,,,0.00,WUHU216HW,2013-02-12 10:15:00,
2013-02-12 04:20:00,29.0,20.1,30.20,NW,315,0.0,0.0,69,0.00,,,0.00,WUHU216HW,2013-02-12 10:20:00,
2013-02-12 04:25:00,29.0,20.1,30.20,NW,315,0.0,0.0,69,0.00,,,0.00,WUHU216HW,2013-02-12 10:25:00,
2013-02-12 04:30:00,28.8,20.0,30.20,NW,315,0.0,0.0,69,0.00,,,0.00,WUHU216HW,2013-02-12 10:30:00,
2013-02-12 04:35:00,28.8,20.4,30.20,NW,315,0.0,0.0,70,0.00,,,0.00,WUHU216HW,2013-02-12 10:35:00,
2013-02-12 04:40:00,28.6,20.2,30.21,NW,315,0.0,0.0,70,0.00,,,0.00,WUHU216HW,2013-02-12 10:40:00,
2013-02-12 04:45:00,28.4,20.0,30.21,NW,315,0.0,0.0,70,0.00,,,0.00,WUHU216HW,2013-02-12 10:45:00,
2013-02-12 04:50:00,28.4,20.0,30.20,NW,315,0.0,0.0,70,0.00,,,0.00,WUHU216HW,2013-02-12 10:50:00,
2013-02-12 04:55:00,28.4,20.0,30.21,SE,135,0.7,0.7,70,0.00,,,0.00,WUHU216HW,2013-02-12 10:55:00,
2013-02-12 05:00:00,28.3,19.8,30.20,ESE,113,0.0,0.9,70,0.00,,,0.00,WUHU216HW,2013-02-12 11:00:00,
2013-02-12 05:05:00,28.3,19.8,30.20,ESE,113,0.0,0.9,70,0.00,,,0.00,WUHU216HW,2013-02-12 11:05:00,
2013-02-12 05:10:00,28.1,19.6,30.20,ESE,113,0.0,0.0,70,0.00,,,0.00,WUHU216HW,2013-02-12 11:10:00,
2013-02-12 05:15:00,28.1,19.9,30.20,ESE,113,0.0,0.0,71,0.00,,,0.00,WUHU216HW,2013-02-12 11:15:00,
2013-02-12 05:20:00,28.1,19.9,30.20,ESE,113,0.0,0.0,71,0.00,,,0.00,WUHU216HW,2013-02-12 11:20:00,
2013-02-12 05:25:00,28.1,19.9,30.20,ESE,113,0.0,0.0,71,0.00,,,0.00,WUHU216HW,2013-02-12 11:25:00,
2013-02-12 05:30:00,28.1,19.9,30.20,ESE,113,0.0,0.0,71,0.00,,,0.00,WUHU216HW,2013-02-12 11:30:00,
2013-02-12 05:35:00,28.1,19.9,30.20,ESE,113,0.0,0.0,71,0.00,,,0.00,WUHU216HW,2013-02-12 11:35:00,
2013-02-12 05:40:00,28.1,20.3,30.21,ESE,113,0.0,0.0,72,0.00,,,0.00,WUHU216HW,2013-02-12 11:40:00,
2013-02-12 05:45:00,28.3,20.4,30.21,SSE,158,0.0,0.9,72,0.00,,,0.00,WUHU216HW,2013-02-12 11:45:00,
2013-02-12 05:50:00,28.3,20.4,30.20,SSE,158,0.0,0.9,72,0.00,,,0.00,WUHU216HW,2013-02-12 11:50:00,
2013-02-12 05:55:00,28.3,20.4,30.21,NNW,338,0.0,1.1,72,0.00,,,0.00,WUHU216HW,2013-02-12 11:55:00,
2013-02-12 06:00:00,28.3,20.4,30.20,NNW,338,0.0,1.1,72,0.00,,,0.00,WUHU216HW,2013-02-12 12:00:00,
2013-02-12 06:05:00,28.3,20.4,30.20,North,0,0.0,0.0,72,0.00,,,0.00,WUHU216HW,2013-02-12 12:05:00,
2013-02-12 06:10:00,28.3,20.4,30.20,North,0,0.0,0.2,72,0.00,,,0.00,WUHU216HW,2013-02-12 12:10:00,
2013-02-12 06:15:00,28.1,20.3,30.20,North,0,0.0,0.2,72,0.00,,,0.00,WUHU216HW,2013-02-12 12:15:00,
2013-02-12 06:20:00,28.1,20.5,30.20,North,0,0.0,0.2,73,0.00,,,0.00,WUHU216HW,2013-02-12 12:20:00,
2013-02-12 06:25:00,27.9,20.3,30.20,North,0,0.0,0.0,73,0.00,,,0.00,WUHU216HW,2013-02-12 12:25:00,
2013-02-12 06:30:00,27.9,20.3,30.20,East,90,0.4,0.4,73,0.00,,,0.00,WUHU216HW,2013-02-12 12:30:00,
2013-02-12 06:35:00,27.7,20.2,30.20,ESE,113,0.0,1.1,73,0.00,,,0.00,WUHU216HW,2013-02-12 12:35:00,
2013-02-12 06:40:00,27.7,20.2,30.20,ESE,113,0.7,1.1,73,0.00,,,0.00,WUHU216HW,2013-02-12 12:40:00,
2013-02-12 06:45:00,27.5,20.0,30.19,ENE,68,1.1,1.1,73,0.00,,,0.00,WUHU216HW,2013-02-12 12:45:00,
2013-02-12 06:50:00,27.5,20.0,30.20,ENE,68,0.9,1.1,73,0.00,,,0.00,WUHU216HW,2013-02-12 12:50:00,
2013-02-12 06:55:00,27.5,20.0,30.20,East,90,0.4,1.1,73,0.00,,,0.00,WUHU216HW,2013-02-12 12:55:00,
2013-02-12 07:00:00,27.5,20.4,30.20,ENE,68,0.9,1.3,74,0.00,,,0.00,WUHU216HW,2013-02-12 13:00:00,
2013-02-12 07:05:00,27.7,20.5,30.20,East,90,0.7,1.6,74,0.00,,,0.00,WUHU216HW,2013-02-12 13:05:00,
2013-02-12 07:10:00,27.7,20.5,30.20,ENE,68,0.2,1.6,74,0.00,,,0.00,WUHU216HW,2013-02-12 13:10:00,
2013-02-12 07:15:00,27.9,20.7,30.20,East,90,0.9,1.8,74,0.00,,,0.00,WUHU216HW,2013-02-12 13:15:00,
2013-02-12 07:20:00,28.1,20.9,30.20,SE,135,1.3,2.0,74,0.00,,,0.00,WUHU216HW,2013-02-12 13:20:00,
2013-02-12 07:25:00,28.3,21.1,30.20,ESE,113,0.7,2.0,74,0.00,,,0.00,WUHU216HW,2013-02-12 13:25:00,
2013-02-12 07:30:00,28.4,21.3,30.20,East,90,0.4,1.6,74,0.00,,,0.00,WUHU216HW,2013-02-12 13:30:00,
2013-02-12 07:35:00,28.4,21.5,30.20,ENE,68,0.7,1.3,75,0.00,,,0.00,WUHU216HW,2013-02-12 13:35:00,
2013-02-12 07:40:00,28.4,21.5,30.20,ENE,68,0.0,2.0,75,0.00,,,0.00,WUHU216HW,2013-02-12 13:40:00,
2013-02-12 07:45:00,28.8,21.9,30.20,ESE,113,0.0,2.0,75,0.00,,,0.00,WUHU216HW,2013-02-12 13:45:00,
2013-02-12 07:50:00,29.0,22.1,30.20,SSE,158,1.3,1.3,75,0.00,,,0.00,WUHU216HW,2013-02-12 13:50:00,
2013-02-12 07:54:00,29.0,22.1,30.20,SE,135,0.4,1.6,75,0.00,,,0.00,WUHU216HW,2013-02-12 13:54:00,
2013-02-12 07:59:00,29.2,22.2,30.21,SSE,158,1.3,1.6,75,0.00,,,0.00,WUHU216HW,2013-02-12 13:59:00,
2013-02-12 08:04:00,29.3,22.4,30.22,SSW,203,0.4,1.3,75,0.00,,,0.00,WUHU216HW,2013-02-12 14:04:00,
2013-02-12 08:09:00,29.5,22.5,30.22,WSW,248,0.0,1.3,75,0.00,,,0.00,WUHU216HW,2013-02-12 14:09:00,
2013-02-12 08:14:00,29.9,22.9,30.22,NNW,338,0.0,0.4,75,0.00,,,0.00,WUHU216HW,2013-02-12 14:14:00,
2013-02-12 08:19:00,29.9,22.9,30.22,North,0,0.4,0.9,75,0.00,,,0.00,WUHU216HW,2013-02-12 14:19:00,
2013-02-12 08:24:00,30.1,22.8,30.22,NNW,338,0.4,1.1,74,0.00,,,0.00,WUHU216HW,2013-02-12 14:24:00,
2013-02-12 08:29:00,30.2,22.9,30.21,NNW,338,0.0,1.1,74,0.00,,,0.00,WUHU216HW,2013-02-12 14:29:00,
2013-02-12 08:34:00,30.6,23.2,30.21,NNW,338,0.0,0.4,74,0.00,,,0.00,WUHU216HW,2013-02-12 14:34:00,
2013-02-12 08:39:00,30.8,23.4,30.21,SW,225,0.9,1.1,74,0.00,,,0.00,WUHU216HW,2013-02-12 14:39:00,
2013-02-12 08:44:00,31.0,23.6,30.21,NNW,338,0.9,1.1,74,0.00,,,0.00,WUHU216HW,2013-02-12 14:44:00,
2013-02-12 08:49:00,31.3,23.9,30.21,NNW,338,1.1,1.3,74,0.00,,,0.00,WUHU216HW,2013-02-12 14:49:00,
2013-02-12 08:54:00,31.5,24.1,30.21,NW,315,0.0,1.8,74,0.00,,,0.00,WUHU216HW,2013-02-12 14:54:00,
2013-02-12 08:59:00,31.7,24.3,30.21,North,0,0.0,1.8,74,0.00,,,0.00,WUHU216HW,2013-02-12 14:59:00,
2013-02-12 09:04:00,31.9,24.2,30.21,WSW,248,1.1,1.1,73,0.00,,,0.00,WUHU216HW,2013-02-12 15:04:00,
2013-02-12 09:09:00,32.0,24.4,30.20,NW,315,0.7,1.1,73,0.00,,,0.00,WUHU216HW,2013-02-12 15:09:00,
2013-02-12 09:14:00,32.2,24.6,30.20,SSE,158,0.0,0.9,73,0.00,,,0.00,WUHU216HW,2013-02-12 15:14:00,
2013-02-12 09:19:00,32.6,24.8,30.20,South,180,1.1,1.6,73,0.00,,,0.00,WUHU216HW,2013-02-12 15:19:00,
2013-02-12 09:24:00,32.8,25.0,30.20,SSE,158,0.0,1.6,73,0.00,,,0.00,WUHU216HW,2013-02-12 15:24:00,
2013-02-12 09:29:00,32.8,25.0,30.19,SSE,158,1.1,1.6,73,0.00,,,0.00,WUHU216HW,2013-02-12 15:29:00,
2013-02-12 09:34:00,32.9,25.2,30.19,SE,135,1.3,2.2,73,0.00,,,0.00,WUHU216HW,2013-02-12 15:34:00,
2013-02-12 09:39:00,33.1,25.4,30.19,SE,135,0.0,2.5,73,0.00,,,0.00,WUHU216HW,2013-02-12 15:39:00,
2013-02-12 09:44:00,33.3,25.5,30.19,SSE,158,0.9,2.5,73,0.00,,,0.00,WUHU216HW,2013-02-12 15:44:00,
2013-02-12 09:49:00,33.5,25.4,30.19,South,180,0.7,2.5,72,0.00,,,0.00,WUHU216HW,2013-02-12 15:49:00,
2013-02-12 09:54:00,33.8,25.7,30.19,ESE,113,1.1,2.5,72,0.00,,,0.00,WUHU216HW,2013-02-12 15:54:00,
2013-02-12 09:59:00,33.8,25.7,30.19,SSE,158,0.7,2.2,72,0.00,,,0.00,WUHU216HW,2013-02-12 15:59:00,
2013-02-12 10:04:00,34.0,25.8,30.19,SE,135,0.4,2.2,72,0.00,,,0.00,WUHU216HW,2013-02-12 16:04:00,
2013-02-12 10:09:00,34.2,25.8,30.19,SE,135,0.4,2.2,71,0.00,,,0.00,WUHU216HW,2013-02-12 16:09:00,
2013-02-12 10:14:00,34.2,25.8,30.19,SE,135,2.0,2.0,71,0.00,,,0.00,WUHU216HW,2013-02-12 16:14:00,
2013-02-12 10:19:00,34.6,26.4,30.19,SE,135,1.1,2.5,72,0.00,,,0.00,WUHU216HW,2013-02-12 16:19:00,
2013-02-12 10:24:00,34.7,26.6,30.19,SSE,158,1.6,2.9,72,0.00,,,0.00,WUHU216HW,2013-02-12 16:24:00,
2013-02-12 10:29:00,34.9,26.7,30.19,SE,135,0.7,2.9,72,0.00,,,0.00,WUHU216HW,2013-02-12 16:29:00,
2013-02-12 10:34:00,35.1,26.9,30.19,South,180,0.7,3.4,72,0.00,,,0.00,WUHU216HW,2013-02-12 16:34:00,
2013-02-12 10:40:00,35.3,27.1,30.20,SSE,158,1.6,3.4,72,0.00,,,0.00,WUHU216HW,2013-02-12 16:40:00,
2013-02-12 10:45:00,35.6,27.5,30.19,South,180,1.1,2.5,72,0.00,,,0.00,WUHU216HW,2013-02-12 16:45:00,
2013-02-12 10:50:00,35.8,27.4,30.18,ESE,113,0.9,2.5,71,0.00,,,0.00,WUHU216HW,2013-02-12 16:50:00,
2013-02-12 10:55:00,36.0,27.6,30.19,SSE,158,3.4,3.4,71,0.00,,,0.00,WUHU216HW,2013-02-12 16:55:00,
2013-02-12 11:00:00,36.4,27.9,30.19,SSE,158,2.0,3.4,71,0.00,,,0.00,WUHU216HW,2013-02-12 17:00:00,
2013-02-12 11:05:00,36.5,28.1,30.18,SSE,158,2.0,3.8,71,0.00,,,0.00,WUHU216HW,2013-02-12 17:05:00,
2013-02-12 11:10:00,36.7,28.3,30.18,South,180,3.6,4.7,71,0.00,,,0.00,WUHU216HW,2013-02-12 17:10:00,
2013-02-12 11:15:00,36.9,28.5,30.18,SE,135,0.9,4.7,71,0.00,,,0.00,WUHU216HW,2013-02-12 17:15:00,
2013-02-12 11:20:00,37.1,28.6,30.18,SSE,158,0.4,4.0,71,0.00,,,0.00,WUHU216HW,2013-02-12 17:20:00,
2013-02-12 11:25:00,37.1,28.6,30.18,SE,135,0.9,2.5,71,0.00,,,0.00,WUHU216HW,2013-02-12 17:25:00,
2013-02-12 11:30:00,37.4,29.0,30.18,SSE,158,1.8,3.6,71,0.00,,,0.00,WUHU216HW,2013-02-12 17:30:00,
2013-02-12 11:35:00,37.6,29.1,30.18,SSW,203,1.8,3.6,71,0.00,,,0.00,WUHU216HW,2013-02-12 17:35:00,
2013-02-12 11:40:00,38.2,29.6,30.17,SSE,158,1.6,2.9,71,0.00,,,0.00,WUHU216HW,2013-02-12 17:40:00,
2013-02-12 11:45:00,38.5,30.0,30.17,SSW,203,1.1,2.9,71,0.00,,,0.00,WUHU216HW,2013-02-12 17:45:00,
2013-02-12 11:50:00,38.7,29.8,30.18,SW,225,2.9,4.7,70,0.00,,,0.00,WUHU216HW,2013-02-12 17:50:00,
2013-02-12 11:55:00,38.9,29.9,30.18,SE,135,1.6,4.7,70,0.00,,,0.00,WUHU216HW,2013-02-12 17:55:00,
2013-02-12 12:00:00,39.1,29.7,30.17,SE,135,0.4,3.1,69,0.00,,,0.00,WUHU216HW,2013-02-12 18:00:00,
2013-02-12 12:05:00,39.4,30.1,30.17,SSE,158,2.5,3.1,69,0.00,,,0.00,WUHU216HW,2013-02-12 18:05:00,
2013-02-12 12:10:00,39.8,30.1,30.17,ESE,113,1.1,3.1,68,0.00,,,0.00,WUHU216HW,2013-02-12 18:10:00,
2013-02-12 12:15:00,40.0,30.3,30.17,SE,135,1.1,3.1,68,0.00,,,0.00,WUHU216HW,2013-02-12 18:15:00,
2013-02-12 12:20:00,40.0,29.8,30.17,SW,225,2.0,2.7,67,0.00,,,0.00,WUHU216HW,2013-02-12 18:20:00,
2013-02-12 12:25:00,40.5,30.3,30.17,West,270,1.1,2.7,67,0.00,,,0.00,WUHU216HW,2013-02-12 18:25:00,
2013-02-12 12:30:00,40.7,30.5,30.17,SW,225,2.5,2.9,67,0.00,,,0.00,WUHU216HW,2013-02-12 18:30:00,
2013-02-12 12:35:00,41.0,30.9,30.17,SSE,158,0.2,3.4,67,0.00,,,0.00,WUHU216HW,2013-02-12 18:35:00,
2013-02-12 12:40:00,41.2,30.7,30.17,ESE,113,0.7,3.4,66,0.00,,,0.00,WUHU216HW,2013-02-12 18:40:00,
2013-02-12 12:45:00,41.2,30.3,30.17,ESE,113,0.7,2.2,65,0.00,,,0.00,WUHU216HW,2013-02-12 18:45:00,
2013-02-12 12:50:00,41.0,29.8,30.17,SSW,203,0.9,1.8,64,0.00,,,0.00,WUHU216HW,2013-02-12 18:50:00,
2013-02-12 12:55:00,41.2,30.0,30.17,SW,225,2.2,2.2,64,0.00,,,0.00,WUHU216HW,2013-02-12 18:55:00,
2013-02-12 13:00:00,41.4,30.2,30.17,SSW,203,1.3,2.5,64,0.00,,,0.00,WUHU216HW,2013-02-12 19:00:00,
2013-02-12 13:05:00,41.8,30.1,30.16,SSW,203,1.8,2.5,63,0.00,,,0.00,WUHU216HW,2013-02-12 19:05:00,
2013-02-12 13:10:00,42.1,30.4,30.16,SE,135,0.4,2.7,63,0.00,,,0.00,WUHU216HW,2013-02-12 19:10:00,
2013-02-12 13:15:00,42.1,30.0,30.16,NE,45,1.3,2.7,62,0.00,,,0.00,WUHU216HW,2013-02-12 19:15:00,
2013-02-12 13:20:00,42.1,30.0,30.15,SSW,203,0.7,2.2,62,0.00,,,0.00,WUHU216HW,2013-02-12 19:20:00,
2013-02-12 13:25:00,42.3,29.8,30.15,SE,135,1.3,2.0,61,0.00,,,0.00,WUHU216HW,2013-02-12 19:25:00,
2013-02-12 13:30:00,42.7,30.2,30.15,WSW,248,0.4,2.0,61,0.00,,,0.00,WUHU216HW,2013-02-12 19:30:00,
2013-02-12 13:35:00,42.8,30.2,30.15,SSW,203,0.4,2.7,61,0.00,,,0.00,WUHU216HW,2013-02-12 19:35:00,
2013-02-12 13:40:00,43.0,30.4,30.15,SW,225,0.0,2.7,61,0.00,,,0.00,WUHU216HW,2013-02-12 19:40:00,
2013-02-12 13:45:00,43.4,30.8,30.15,South,180,1.3,2.5,61,0.00,,,0.00,WUHU216HW,2013-02-12 19:45:00,
2013-02-12 13:50:00,43.6,30.6,30.14,SE,135,1.6,2.5,60,0.00,,,0.00,WUHU216HW,2013-02-12 19:50:00,
2013-02-12 13:55:00,43.6,30.6,30.14,SSE,158,3.1,3.1,60,0.00,,,0.00,WUHU216HW,2013-02-12 19:55:00,
2013-02-12 14:00:00,43.7,30.3,30.14,South,180,1.1,3.4,59,0.00,,,0.00,WUHU216HW,2013-02-12 20:00:00,
2013-02-12 14:05:00,43.9,30.5,30.13,North,0,0.7,3.4,59,0.00,,,0.00,WUHU216HW,2013-02-12 20:05:00,
2013-02-12 14:10:00,43.9,30.1,30.13,ESE,113,1.1,2.0,58,0.00,,,0.00,WUHU216HW,2013-02-12 20:10:00,
2013-02-12 14:15:00,43.7,29.9,30.12,SSW,203,0.2,3.6,58,0.00,,,0.00,WUHU216HW,2013-02-12 20:15:00,
2013-02-12 14:20:00,43.7,29.9,30.12,SSE,158,4.3,4.3,58,0.00,,,0.00,WUHU216HW,2013-02-12 20:20:00,
2013-02-12 14:25:00,43.7,29.4,30.12,SE,135,1.8,4.9,57,0.00,,,0.00,WUHU216HW,2013-02-12 20:25:00,
2013-02-12 14:30:00,43.9,29.6,30.12,SSE,158,0.4,4.9,57,0.00,,,0.00,WUHU216HW,2013-02-12 20:30:00,
2013-02-12 14:35:00,43.9,29.6,30.12,SSE,158,0.7,4.0,57,0.00,,,0.00,WUHU216HW,2013-02-12 20:35:00,
2013-02-12 14:40:00,43.9,29.2,30.11,SSE,158,2.5,4.0,56,0.00,,,0.00,WUHU216HW,2013-02-12 20:40:00,
2013-02-12 14:45:00,44.1,29.3,30.11,SW,225,3.4,3.4,56,0.00,,,0.00,WUHU216HW,2013-02-12 20:45:00,
2013-02-12 14:50:00,44.3,29.5,30.10,WSW,248,0.9,3.4,56,0.00,,,0.00,WUHU216HW,2013-02-12 20:50:00,
2013-02-12 14:55:00,44.3,29.5,30.10,South,180,1.3,3.4,56,0.00,,,0.00,WUHU216HW,2013-02-12 20:55:00,
2013-02-12 15:00:00,44.3,29.1,30.10,ESE,113,2.2,2.5,55,0.00,,,0.00,WUHU216HW,2013-02-12 21:00:00,
2013-02-12 15:05:00,44.1,28.9,30.09,SSW,203,1.1,2.5,55,0.00,,,0.00,WUHU216HW,2013-02-12 21:05:00,
2013-02-12 15:10:00,44.3,29.1,30.10,SSE,158,1.1,3.6,55,0.00,,,0.00,WUHU216HW,2013-02-12 21:10:00,
2013-02-12 15:15:00,44.3,29.1,30.09,ESE,113,0.0,3.6,55,0.00,,,0.00,WUHU216HW,2013-02-12 21:15:00,
2013-02-12 15:20:00,44.1,28.4,30.10,East,90,1.1,2.2,54,0.00,,,0.00,WUHU216HW,2013-02-12 21:20:00,
2013-02-12 15:25:00,43.9,27.9,30.09,NNE,23,1.1,2.2,53,0.00,,,0.00,WUHU216HW,2013-02-12 21:25:00,
2013-02-12 15:30:00,43.7,27.7,30.09,East,90,0.0,1.8,53,0.00,,,0.00,WUHU216HW,2013-02-12 21:30:00,
2013-02-12 15:35:00,43.6,27.6,30.09,NNE,23,0.0,1.8,53,0.00,,,0.00,WUHU216HW,2013-02-12 21:35:00,
2013-02-12 15:40:00,43.6,27.6,30.08,NNW,338,0.2,1.3,53,0.00,,,0.00,WUHU216HW,2013-02-12 21:40:00,
2013-02-12 15:45:00,43.6,27.6,30.08,NE,45,0.7,1.1,53,0.00,,,0.00,WUHU216HW,2013-02-12 21:45:00,
2013-02-12 15:50:00,43.6,27.6,30.08,ESE,113,0.4,1.6,53,0.00,,,0.00,WUHU216HW,2013-02-12 21:50:00,
2013-02-12 15:55:00,43.6,27.6,30.08,ESE,113,0.9,1.6,53,0.00,,,0.00,WUHU216HW,2013-02-12 21:55:00,
2013-02-12 16:00:00,43.6,28.0,30.08,SSE,158,1.8,2.5,54,0.00,,,0.00,WUHU216HW,2013-02-12 22:00:00,
2013-02-12 16:05:00,43.6,28.0,30.08,South,180,1.3,2.5,54,0.00,,,0.00,WUHU216HW,2013-02-12 22:05:00,
2013-02-12 16:10:00,43.7,28.2,30.08,WSW,248,0.4,1.8,54,0.00,,,0.00,WUHU216HW,2013-02-12 22:10:00,
2013-02-12 16:15:00,43.7,28.2,30.08,West,270,0.0,1.8,54,0.00,,,0.00,WUHU216HW,2013-02-12 22:15:00,
2013-02-12 16:20:00,43.6,28.0,30.08,ESE,113,1.1,1.8,54,0.00,,,0.00,WUHU216HW,2013-02-12 22:20:00,
2013-02-12 16:25:00,43.6,28.0,30.08,SSE,158,0.4,2.5,54,0.00,,,0.00,WUHU216HW,2013-02-12 22:25:00,
2013-02-12 16:30:00,43.4,27.8,30.07,WSW,248,0.0,2.5,54,0.00,,,0.00,WUHU216HW,2013-02-12 22:30:00,
2013-02-12 16:35:00,43.2,27.6,30.07,SSE,158,0.4,1.3,54,0.00,,,0.00,WUHU216HW,2013-02-12 22:35:00,
2013-02-12 16:40:00,43.0,27.5,30.07,SSE,158,1.3,1.8,54,0.00,,,0.00,WUHU216HW,2013-02-12 22:40:00,
2013-02-12 16:45:00,42.8,27.3,30.07,South,180,0.0,1.8,54,0.00,,,0.00,WUHU216HW,2013-02-12 22:45:00,
2013-02-12 16:50:00,42.8,27.7,30.07,SE,135,2.0,2.0,55,0.00,,,0.00,WUHU216HW,2013-02-12 22:50:00,
2013-02-12 16:55:00,42.8,27.7,30.07,SSW,203,1.1,2.0,55,0.00,,,0.00,WUHU216HW,2013-02-12 22:55:00,
2013-02-12 17:00:00,42.7,27.5,30.07,South,180,1.1,2.0,55,0.00,,,0.00,WUHU216HW,2013-02-12 23:00:00,
2013-02-12 17:05:00,42.7,27.5,30.07,SSW,203,0.2,2.0,55,0.00,,,0.00,WUHU216HW,2013-02-12 23:05:00,
2013-02-12 17:10:00,42.5,27.4,30.07,SSE,158,0.7,2.0,55,0.00,,,0.00,WUHU216HW,2013-02-12 23:10:00,
2013-02-12 17:15:00,42.3,27.2,30.07,SSE,158,1.8,2.7,55,0.00,,,0.00,WUHU216HW,2013-02-12 23:15:00,
2013-02-12 17:20:00,42.1,27.0,30.07,SSE,158,0.9,2.7,55,0.00,,,0.00,WUHU216HW,2013-02-12 23:20:00,
2013-02-12 17:25:00,42.1,27.5,30.07,SE,135,1.3,2.5,56,0.00,,,0.00,WUHU216HW,2013-02-12 23:25:00,
2013-02-12 17:30:00,41.9,27.3,30.07,SSW,203,0.9,1.8,56,0.00,,,0.00,WUHU216HW,2013-02-12 23:30:00,
2013-02-12 17:35:00,41.8,27.2,30.07,SSE,158,0.9,1.8,56,0.00,,,0.00,WUHU216HW,2013-02-12 23:35:00,
2013-02-12 17:40:00,41.8,27.2,30.07,SW,225,1.1,2.9,56,0.00,,,0.00,WUHU216HW,2013-02-12 23:40:00,
2013-02-12 17:45:00,41.6,27.0,30.06,SSW,203,1.8,2.9,56,0.00,,,0.00,WUHU216HW,2013-02-12 23:45:00,
2013-02-12 17:50:00,41.4,26.8,30.06,SW,225,0.4,2.5,56,0.00,,,0.00,WUHU216HW,2013-02-12 23:50:00,
2013-02-12 17:55:00,41.4,26.8,30.07,SSW,203,1.6,1.6,56,0.00,,,0.00,WUHU216HW,2013-02-12 23:55:00,
2013-02-12 18:00:00,41.4,27.3,30.07,WSW,248,1.1,2.5,57,0.00,,,0.00,WUHU216HW,2013-02-13 00:00:00,
2013-02-12 18:05:00,41.2,27.1,30.07,SW,225,0.4,2.5,57,0.00,,,0.00,WUHU216HW,2013-02-13 00:05:00,
2013-02-12 18:10:00,41.0,26.9,30.07,SW,225,0.0,1.1,57,0.00,,,0.00,WUHU216HW,2013-02-13 00:10:00,
2013-02-12 18:15:00,41.0,26.9,30.07,SW,225,0.0,0.4,57,0.00,,,0.00,WUHU216HW,2013-02-13 00:15:00,
2013-02-12 18:20:00,41.0,27.4,30.07,SW,225,0.0,0.4,58,0.00,,,0.00,WUHU216HW,2013-02-13 00:20:00,
2013-02-12 18:25:00,40.9,27.2,30.07,West,270,0.4,1.6,58,0.00,,,0.00,WUHU216HW,2013-02-13 00:25:00,
2013-02-12 18:30:00,40.9,27.2,30.07,SSW,203,0.0,1.6,58,0.00,,,0.00,WUHU216HW,2013-02-13 00:30:00,
2013-02-12 18:35:00,40.7,27.0,30.07,WSW,248,0.0,0.7,58,0.00,,,0.00,WUHU216HW,2013-02-13 00:35:00,
2013-02-12 18:40:00,40.7,27.0,30.07,WSW,248,0.7,0.9,58,0.00,,,0.00,WUHU216HW,2013-02-13 00:40:00,
2013-02-12 18:45:00,40.7,27.0,30.07,SW,225,0.2,1.1,58,0.00,,,0.00,WUHU216HW,2013-02-13 00:45:00,
2013-02-12 18:50:00,40.7,27.0,30.07,SW,225,0.7,1.3,58,0.00,,,0.00,WUHU216HW,2013-02-13 00:50:00,
2013-02-12 18:55:00,40.5,27.3,30.07,South,180,0.2,1.3,59,0.00,,,0.00,WUHU216HW,2013-02-13 00:55:00,
2013-02-12 19:00:00,40.5,27.3,30.07,SSW,203,0.7,2.2,59,0.00,,,0.00,WUHU216HW,2013-02-13 01:00:00,
2013-02-12 19:05:00,40.5,27.3,30.07,SW,225,1.1,2.2,59,0.00,,,0.00,WUHU216HW,2013-02-13 01:05:00,
2013-02-12 19:10:00,40.3,27.1,30.07,SW,225,0.4,2.0,59,0.00,,,0.00,WUHU216HW,2013-02-13 01:10:00,
2013-02-12 19:15:00,40.3,27.1,30.07,WSW,248,1.1,1.8,59,0.00,,,0.00,WUHU216HW,2013-02-13 01:15:00,
2013-02-12 19:20:00,40.3,27.1,30.07,SW,225,1.3,1.8,59,0.00,,,0.00,WUHU216HW,2013-02-13 01:20:00,
2013-02-12 19:25:00,40.3,27.1,30.07,SSW,203,0.9,1.8,59,0.00,,,0.00,WUHU216HW,2013-02-13 01:25:00,
2013-02-12 19:30:00,40.1,26.9,30.07,WSW,248,1.8,1.8,59,0.00,,,0.00,WUHU216HW,2013-02-13 01:30:00,
2013-02-12 19:35:00,40.1,26.9,30.07,SSW,203,1.1,2.2,59,0.00,,,0.00,WUHU216HW,2013-02-13 01:35:00,
2013-02-12 19:40:00,40.0,26.7,30.07,SW,225,1.1,2.2,59,0.00,,,0.00,WUHU216HW,2013-02-13 01:40:00,
2013-02-12 19:45:00,40.0,26.7,30.07,South,180,1.1,1.8,59,0.00,,,0.00,WUHU216HW,2013-02-13 01:45:00,
2013-02-12 19:50:00,40.0,26.7,30.07,SSW,203,0.9,2.2,59,0.00,,,0.00,WUHU216HW,2013-02-13 01:50:00,
2013-02-12 19:55:00,40.0,26.7,30.07,SW,225,2.2,2.2,59,0.00,,,0.00,WUHU216HW,2013-02-13 01:55:00,
2013-02-12 20:00:00,40.0,26.7,30.07,SSW,203,1.8,2.2,59,0.00,,,0.00,WUHU216HW,2013-02-13 02:00:00,
2013-02-12 20:05:00,39.8,26.6,30.07,South,180,0.9,2.0,59,0.00,,,0.00,WUHU216HW,2013-02-13 02:05:00,
2013-02-12 20:10:00,39.8,26.6,30.07,South,180,1.1,1.8,59,0.00,,,0.00,WUHU216HW,2013-02-13 02:10:00,
2013-02-12 20:15:00,39.6,26.4,30.07,SSW,203,0.4,1.8,59,0.00,,,0.00,WUHU216HW,2013-02-13 02:15:00,
2013-02-12 20:20:00,39.4,26.2,30.07,SSW,203,1.1,2.2,59,0.00,,,0.00,WUHU216HW,2013-02-13 02:20:00,
2013-02-12 20:25:00,39.2,26.0,30.07,SSW,203,1.6,2.2,59,0.00,,,0.00,WUHU216HW,2013-02-13 02:25:00,
2013-02-12 20:30:00,39.2,26.0,30.07,South,180,0.4,2.2,59,0.00,,,0.00,WUHU216HW,2013-02-13 02:30:00,
2013-02-12 20:35:00,39.1,25.8,30.07,SSW,203,0.9,2.2,59,0.00,,,0.00,WUHU216HW,2013-02-13 02:35:00,
2013-02-12 20:40:00,39.1,26.3,30.06,WSW,248,1.3,1.8,60,0.00,,,0.00,WUHU216HW,2013-02-13 02:40:00,
2013-02-12 20:45:00,38.9,26.1,30.07,SW,225,0.9,1.8,60,0.00,,,0.00,WUHU216HW,2013-02-13 02:45:00,
2013-02-12 20:50:00,38.7,26.0,30.07,WSW,248,0.0,1.3,60,0.00,,,0.00,WUHU216HW,2013-02-13 02:50:00,
2013-02-12 20:55:00,38.5,25.8,30.07,WSW,248,0.2,1.1,60,0.00,,,0.00,WUHU216HW,2013-02-13 02:55:00,
2013-02-12 21:00:00,38.5,25.8,30.07,SW,225,0.7,1.1,60,0.00,,,0.00,WUHU216HW,2013-02-13 03:00:00,
2013-02-12 21:05:00,38.3,25.7,30.07,SW,225,0.7,1.1,60,0.00,,,0.00,WUHU216HW,2013-02-13 03:05:00,
2013-02-12 21:10:00,38.2,25.5,30.07,SW,225,1.1,1.3,60,0.00,,,0.00,WUHU216HW,2013-02-13 03:10:00,
2013-02-12 21:15:00,38.0,25.8,30.07,SW,225,1.1,1.6,61,0.00,,,0.00,WUHU216HW,2013-02-13 03:15:00,
2013-02-12 21:20:00,37.8,25.6,30.07,SW,225,1.1,1.6,61,0.00,,,0.00,WUHU216HW,2013-02-13 03:20:00,
2013-02-12 21:25:00,37.8,25.6,30.07,SW,225,1.3,2.2,61,0.00,,,0.00,WUHU216HW,2013-02-13 03:25:00,
2013-02-12 21:30:00,37.6,25.0,30.07,WSW,248,1.6,2.2,60,0.00,,,0.00,WUHU216HW,2013-02-13 03:30:00,
2013-02-12 21:35:00,37.4,24.8,30.07,WSW,248,0.7,2.2,60,0.00,,,0.00,WUHU216HW,2013-02-13 03:35:00,
2013-02-12 21:40:00,37.4,25.2,30.07,SW,225,1.1,2.5,61,0.00,,,0.00,WUHU216HW,2013-02-13 03:40:00,
2013-02-12 21:45:00,37.4,25.2,30.07,SW,225,1.3,2.5,61,0.00,,,0.00,WUHU216HW,2013-02-13 03:45:00,
2013-02-12 21:50:00,37.3,25.0,30.07,SSW,203,0.7,2.2,61,0.00,,,0.00,WUHU216HW,2013-02-13 03:50:00,
2013-02-12 21:55:00,37.1,24.9,30.07,SSW,203,1.1,2.2,61,0.00,,,0.00,WUHU216HW,2013-02-13 03:55:00,
2013-02-12 22:00:00,37.1,25.3,30.06,SSW,203,0.7,1.8,62,0.00,,,0.00,WUHU216HW,2013-02-13 04:00:00,
2013-02-12 22:05:00,36.9,25.1,30.07,South,180,0.0,1.6,62,0.00,,,0.00,WUHU216HW,2013-02-13 04:05:00,
2013-02-12 22:10:00,36.7,24.9,30.06,South,180,1.1,1.6,62,0.00,,,0.00,WUHU216HW,2013-02-13 04:10:00,
2013-02-12 22:15:00,36.5,24.8,30.06,SSE,158,0.9,1.3,62,0.00,,,0.00,WUHU216HW,2013-02-13 04:15:00,
2013-02-12 22:20:00,36.4,24.6,30.06,South,180,0.0,1.8,62,0.00,,,0.00,WUHU216HW,2013-02-13 04:20:00,
2013-02-12 22:25:00,36.4,24.6,30.06,South,180,0.4,1.8,62,0.00,,,0.00,WUHU216HW,2013-02-13 04:25:00,
2013-02-12 22:30:00,36.0,24.3,30.06,SSE,158,1.8,1.8,62,0.00,,,0.00,WUHU216HW,2013-02-13 04:30:00,
2013-02-12 22:35:00,35.8,24.1,30.06,South,180,1.6,1.8,62,0.00,,,0.00,WUHU216HW,2013-02-13 04:35:00,
2013-02-12 22:40:00,35.6,24.3,30.06,SSE,158,0.9,2.2,63,0.00,,,0.00,WUHU216HW,2013-02-13 04:40:00,
2013-02-12 22:45:00,35.6,24.3,30.06,SSW,203,1.6,2.7,63,0.00,,,0.00,WUHU216HW,2013-02-13 04:45:00,
2013-02-12 22:50:00,35.5,24.1,30.05,SSE,158,1.1,2.7,63,0.00,,,0.00,WUHU216HW,2013-02-13 04:50:00,
2013-02-12 22:55:00,35.3,23.9,30.05,SSW,203,1.1,2.7,63,0.00,,,0.00,WUHU216HW,2013-02-13 04:55:00,
2013-02-12 23:00:00,35.1,24.1,30.05,South,180,1.6,4.0,64,0.00,,,0.00,WUHU216HW,2013-02-13 05:00:00,
2013-02-12 23:05:00,34.9,23.9,30.04,SSE,158,1.1,4.0,64,0.00,,,0.00,WUHU216HW,2013-02-13 05:05:00,
2013-02-12 23:10:00,34.9,23.9,30.04,SSW,203,1.1,2.2,64,0.00,,,0.00,WUHU216HW,2013-02-13 05:10:00,
2013-02-12 23:15:00,34.9,24.3,30.04,South,180,1.1,2.0,65,0.00,,,0.00,WUHU216HW,2013-02-13 05:15:00,
2013-02-12 23:20:00,34.7,24.1,30.04,SSW,203,0.4,3.4,65,0.00,,,0.00,WUHU216HW,2013-02-13 05:20:00,
2013-02-12 23:25:00,34.6,23.9,30.04,SSW,203,0.9,3.4,65,0.00,,,0.00,WUHU216HW,2013-02-13 05:25:00,
2013-02-12 23:30:00,34.6,23.9,30.04,WSW,248,1.6,2.5,65,0.00,,,0.00,WUHU216HW,2013-02-13 05:30:00,
2013-02-12 23:35:00,34.4,23.8,30.04,SW,225,1.3,2.5,65,0.00,,,0.00,WUHU216HW,2013-02-13 05:35:00,
2013-02-12 23:40:00,34.4,24.1,30.04,SW,225,2.0,2.2,66,0.00,,,0.00,WUHU216HW,2013-02-13 05:40:00,
2013-02-12 23:45:00,34.2,23.9,30.04,SSW,203,0.7,2.2,66,0.00,,,0.00,WUHU216HW,2013-02-13 05:45:00,
2013-02-12 23:50:00,34.2,23.9,30.04,SW,225,0.9,2.2,66,0.00,,,0.00,WUHU216HW,2013-02-13 05:50:00,
2013-02-12 23:55:00,34.2,23.9,30.04,SW,225,1.6,2.7,66,0.00,,,0.00,WUHU216HW,2013-02-13 05:55:00,